This is the latest recevied weather packets stored in our database for station/object OK3MS-5. If no packets are shown the sender has not sent any weather packets the latest 10 day(s).
| Time | Temp. | Humidity | Pressure | Rain* | Wind** | Luminosity | Snow |
|---|---|---|---|---|---|---|---|
| 1777641004 | 18.33° C | 39% | 1025.1 hPa | 0 mm | - | 642 W/m² | - |
| 1777640705 | 17.78° C | 39% | 1025.2 hPa | 0 mm | - | 645 W/m² | - |
| 1777640404 | 17.78° C | 40% | 1025.4 hPa | 0 mm | - | 668 W/m² | - |
| 1777640104 | 17.78° C | 41% | 1025.4 hPa | 0 mm | - | 671 W/m² | - |
| 1777639807 | 17.22° C | 41% | 1025.5 hPa | 0 mm | - | 160 W/m² | - |
| 1777639505 | 17.22° C | 41% | 1025.5 hPa | 0 mm | - | 694 W/m² | - |
| 1777639206 | 17.78° C | 43% | 1025.5 hPa | 0 mm | - | 723 W/m² | - |
| 1777638903 | 17.78° C | 41% | 1025.5 hPa | 0 mm | - | 734 W/m² | - |
| 1777638604 | 17.78° C | 41% | 1025.7 hPa | 0 mm | - | 714 W/m² | - |
| 1777638303 | 17.22° C | 39% | 1025.9 hPa | 0 mm | - | 721 W/m² | - |
| 1777638003 | 17.22° C | 42% | 1025.9 hPa | 0 mm | - | 722 W/m² | - |
| 1777637703 | 17.22° C | 41% | 1025.8 hPa | 0 mm | - | 731 W/m² | - |
| 1777637404 | 17.22° C | 40% | 1026 hPa | 0 mm | - | 776 W/m² | - |
| 1777637104 | 18.33° C | 40% | 1025.8 hPa | 0 mm | - | 840 W/m² | - |
| 1777636804 | 18.33° C | 42% | 1025.8 hPa | 0 mm | - | 824 W/m² | - |
| 1777636505 | 17.78° C | 39% | 1026 hPa | 0 mm | - | 446 W/m² | - |
| 1777636203 | 16.67° C | 43% | 1026.2 hPa | 0 mm | - | 786 W/m² | - |
| 1777635903 | 16.11° C | 45% | 1026.5 hPa | 0 mm | - | 182 W/m² | - |
| 1777635605 | 15.56° C | 46% | 1026.6 hPa | 0 mm | - | 318 W/m² | - |
| 1777635303 | 15.56° C | 46% | 1026.6 hPa | 0 mm | - | 355 W/m² | - |
| 1777635006 | 16.11° C | 46% | 1026.4 hPa | 0 mm | - | 293 W/m² | - |
| 1777634705 | 16.67° C | 44% | 1026.6 hPa | 0 mm | - | 886 W/m² | - |
| 1777634403 | 16.67° C | 42% | 1026.6 hPa | 0 mm | - | 870 W/m² | - |
| 1777634103 | 15.56° C | 43% | 1026.8 hPa | 0 mm | - | 857 W/m² | - |
| 1777633804 | 15.56° C | 45% | 1027 hPa | 0 mm | - | 225 W/m² | - |
* Rain latest hour (hover to see other rain measurements)
** Current wind speed in m/s (hover to see current wind gust speed)